createdAt,value
2022-09-09T00:00:24.999Z,7.75
2022-09-09T00:03:15.500Z,7.74
2022-09-09T00:05:54.518Z,7.64
2022-09-09T00:08:25.907Z,7.71
2022-09-09T00:11:02.665Z,7.89
2022-09-09T00:13:39.426Z,7.93
2022-09-09T00:16:28.362Z,7.90
2022-09-09T00:19:07.333Z,7.84
2022-09-09T00:21:39.744Z,7.86
2022-09-09T00:24:18.540Z,8.06
2022-09-09T00:26:58.427Z,8.10
2022-09-09T00:29:43.225Z,8.29
2022-09-09T00:32:17.113Z,8.13
2022-09-09T00:34:54.574Z,8.06
2022-09-09T00:37:24.644Z,7.92
2022-09-09T00:39:58.421Z,7.85
2022-09-09T00:42:41.667Z,8.13
2022-09-09T00:45:29.880Z,8.07
2022-09-09T00:47:57.286Z,8.10
2022-09-09T00:50:50.176Z,8.25
2022-09-09T00:54:00.384Z,8.27
2022-09-09T00:56:38.021Z,8.27
2022-09-09T00:59:28.425Z,8.30
2022-09-09T01:02:14.456Z,8.14
2022-09-09T01:04:41.675Z,8.30
2022-09-09T01:07:19.801Z,8.23
2022-09-09T01:09:57.504Z,7.95
2022-09-09T01:12:39.199Z,8.28
2022-09-09T01:15:13.600Z,8.39
2022-09-09T01:18:06.768Z,8.40
2022-09-09T01:21:11.009Z,8.37
2022-09-09T01:24:00.918Z,8.38
2022-09-09T01:26:31.303Z,8.41
2022-09-09T01:29:02.778Z,8.25
2022-09-09T01:31:53.519Z,8.41
2022-09-09T01:34:22.926Z,8.31
2022-09-09T01:36:58.825Z,8.26
2022-09-09T01:39:27.474Z,8.44
2022-09-09T01:42:10.730Z,8.20
2022-09-09T01:44:39.052Z,8.28
2022-09-09T01:47:07.490Z,8.09
2022-09-09T01:49:38.202Z,8.13
2022-09-09T01:52:13.176Z,8.17
2022-09-09T01:54:40.312Z,8.20
2022-09-09T01:57:28.970Z,8.25
2022-09-09T02:00:06.905Z,8.40
2022-09-09T02:02:55.623Z,8.24
2022-09-09T02:05:39.046Z,8.45
2022-09-09T02:08:27.440Z,8.55
2022-09-09T02:11:08.221Z,8.42
2022-09-09T02:13:46.354Z,8.45
2022-09-09T02:16:26.441Z,8.30
2022-09-09T02:19:07.575Z,8.35
2022-09-09T02:21:49.501Z,8.35
2022-09-09T02:24:17.068Z,8.49
2022-09-09T02:26:55.218Z,8.46
2022-09-09T02:29:31.499Z,8.48
2022-09-09T02:32:04.886Z,8.56
2022-09-09T02:34:40.952Z,8.74
2022-09-09T02:37:11.829Z,8.67
2022-09-09T02:39:40.347Z,8.70
2022-09-09T02:42:11.372Z,8.72
2022-09-09T02:44:38.602Z,8.91
2022-09-09T02:47:07.062Z,8.81
2022-09-09T02:50:02.672Z,8.62
2022-09-09T02:52:36.939Z,8.75
2022-09-09T02:55:18.963Z,8.94
2022-09-09T02:57:49.467Z,8.75
2022-09-09T03:00:24.777Z,8.71
2022-09-09T03:02:52.251Z,8.90
2022-09-09T03:05:46.065Z,8.98
2022-09-09T03:08:14.211Z,9.07
2022-09-09T03:10:42.372Z,8.86
2022-09-09T03:13:10.975Z,8.78
2022-09-09T03:15:39.813Z,8.99
2022-09-09T03:18:09.283Z,8.85
2022-09-09T03:20:36.570Z,8.92
2022-09-09T03:23:03.635Z,8.88
2022-09-09T03:25:30.569Z,8.97
2022-09-09T03:27:57.802Z,9.05
2022-09-09T03:30:27.234Z,8.92
2022-09-09T03:32:56.133Z,8.96
2022-09-09T03:35:26.526Z,9.11
2022-09-09T03:38:02.492Z,8.95
2022-09-09T03:40:32.551Z,8.97
2022-09-09T03:42:59.409Z,9.12
2022-09-09T03:45:26.941Z,9.01
2022-09-09T03:47:53.995Z,8.96
2022-09-09T03:50:21.261Z,8.77
2022-09-09T03:52:48.603Z,8.74
2022-09-09T03:55:20.599Z,8.79
2022-09-09T03:57:47.435Z,8.80
2022-09-09T04:00:14.895Z,8.64
2022-09-09T04:02:49.825Z,8.59
2022-09-09T04:05:17.901Z,8.56
2022-09-09T04:07:46.869Z,8.86
2022-09-09T04:10:13.892Z,8.83
2022-09-09T04:12:40.869Z,8.69
2022-09-09T04:15:08.108Z,8.61
2022-09-09T04:17:36.271Z,8.80
2022-09-09T04:20:03.900Z,8.59
2022-09-09T04:22:39.790Z,8.64
2022-09-09T04:25:08.097Z,8.67
2022-09-09T04:27:35.753Z,8.91
2022-09-09T04:30:02.785Z,8.67
2022-09-09T04:32:34.053Z,8.77
2022-09-09T04:35:01.013Z,8.72
2022-09-09T04:37:27.851Z,8.61
2022-09-09T04:39:55.517Z,8.62
2022-09-09T04:42:22.313Z,8.92
2022-09-09T04:44:49.377Z,9.01
2022-09-09T04:47:16.439Z,9.19
2022-09-09T04:49:43.266Z,9.14
2022-09-09T04:52:10.122Z,8.99
2022-09-09T04:54:37.418Z,9.26
2022-09-09T04:57:04.325Z,9.14
2022-09-09T04:59:31.235Z,9.27
2022-09-09T05:02:00.972Z,9.39
2022-09-09T05:04:27.957Z,9.61
2022-09-09T05:06:55.431Z,9.44
2022-09-09T05:09:23.665Z,9.25
2022-09-09T05:11:51.991Z,9.45
2022-09-09T05:14:32.103Z,9.66
2022-09-09T05:17:01.092Z,9.70
2022-09-09T05:19:28.209Z,9.86
2022-09-09T05:21:55.365Z,10.35
2022-09-09T05:24:28.462Z,9.64
2022-09-09T05:26:57.938Z,10.06
2022-09-09T05:29:25.033Z,10.10
2022-09-09T05:31:52.027Z,10.23
2022-09-09T05:34:21.195Z,10.44
2022-09-09T05:36:48.128Z,10.45
2022-09-09T05:39:15.963Z,10.15
2022-09-09T05:41:42.872Z,10.05
2022-09-09T05:44:09.882Z,9.80
2022-09-09T05:46:39.306Z,9.92
2022-09-09T05:49:06.299Z,9.96
2022-09-09T05:51:34.284Z,10.07
2022-09-09T05:54:08.701Z,9.93
2022-09-09T05:56:42.105Z,10.50
2022-09-09T05:59:09.985Z,10.37
2022-09-09T06:01:47.754Z,10.25
2022-09-09T06:04:21.400Z,10.65
2022-09-09T06:06:49.327Z,10.71
2022-09-09T06:09:19.996Z,10.77
2022-09-09T06:11:47.100Z,11.29
2022-09-09T06:14:15.324Z,11.37
2022-09-09T06:17:08.665Z,11.27
2022-09-09T06:19:36.823Z,11.37
2022-09-09T06:22:04.027Z,11.30
2022-09-09T06:24:34.290Z,11.87
2022-09-09T06:27:11.983Z,11.97
2022-09-09T06:29:38.811Z,12.02
2022-09-09T06:32:05.969Z,12.08
2022-09-09T06:34:32.867Z,12.09
2022-09-09T06:37:01.148Z,12.26
2022-09-09T06:39:35.308Z,12.12
2022-09-09T06:42:21.200Z,11.91
2022-09-09T06:44:51.049Z,11.74
2022-09-09T06:47:34.856Z,11.94
2022-09-09T06:50:02.236Z,11.49
2022-09-09T06:52:35.825Z,11.49
2022-09-09T06:55:04.693Z,11.43
2022-09-09T06:57:40.043Z,11.36
2022-09-09T07:00:13.635Z,11.38
2022-09-09T07:02:40.846Z,10.92
2022-09-09T07:05:09.738Z,10.80
2022-09-09T07:07:37.529Z,11.52
2022-09-09T07:10:05.149Z,11.14
2022-09-09T07:12:32.200Z,11.38
2022-09-09T07:15:02.926Z,11.44
2022-09-09T07:17:29.955Z,11.88
2022-09-09T07:19:59.033Z,11.82
2022-09-09T07:22:28.489Z,11.75
2022-09-09T07:24:55.403Z,11.60
2022-09-09T07:27:22.185Z,11.53
2022-09-09T07:29:54.552Z,10.39
2022-09-09T07:32:21.858Z,9.97
2022-09-09T07:34:48.648Z,10.37
2022-09-09T07:37:15.690Z,10.61
2022-09-09T07:39:44.662Z,10.60
2022-09-09T07:42:12.613Z,11.04
2022-09-09T07:44:39.746Z,11.14
2022-09-09T07:47:11.193Z,11.22
2022-09-09T07:49:45.230Z,11.50
2022-09-09T07:52:13.249Z,11.91
2022-09-09T07:54:45.461Z,12.19
2022-09-09T07:57:13.007Z,12.27
2022-09-09T07:59:39.829Z,12.51
2022-09-09T08:02:10.622Z,12.18
2022-09-09T08:04:37.733Z,12.48
2022-09-09T08:07:36.780Z,12.33
2022-09-09T08:10:19.030Z,11.91
2022-09-09T08:13:07.793Z,11.89
2022-09-09T08:15:35.602Z,11.45
2022-09-09T08:18:03.814Z,11.29
2022-09-09T08:20:30.759Z,11.04
2022-09-09T08:22:57.625Z,11.07
2022-09-09T08:25:24.560Z,11.27
2022-09-09T08:27:54.548Z,11.40
2022-09-09T08:30:21.728Z,11.96
2022-09-09T08:32:53.351Z,12.16
2022-09-09T08:35:20.951Z,12.49
2022-09-09T08:37:51.489Z,12.85
2022-09-09T08:40:26.234Z,13.71
2022-09-09T08:42:58.747Z,13.25
2022-09-09T08:45:37.361Z,12.91
2022-09-09T08:48:27.008Z,12.63
2022-09-09T08:51:04.590Z,12.27
2022-09-09T08:53:43.196Z,12.10
2022-09-09T08:56:15.245Z,11.24
2022-09-09T08:58:51.208Z,10.81
2022-09-09T09:01:45.137Z,10.63
2022-09-09T09:04:35.515Z,10.41
2022-09-09T09:07:11.017Z,10.26
2022-09-09T09:09:55.547Z,10.54
2022-09-09T09:12:29.684Z,10.75
2022-09-09T09:14:57.379Z,11.08
2022-09-09T09:17:27.921Z,11.45
2022-09-09T09:19:54.935Z,11.53
2022-09-09T09:22:31.626Z,11.91
2022-09-09T09:25:23.220Z,12.11
2022-09-09T09:28:11.570Z,11.90
2022-09-09T09:30:56.879Z,12.18
2022-09-09T09:33:42.144Z,12.36
2022-09-09T09:36:09.878Z,12.34
2022-09-09T09:41:36.972Z,12.41
2022-09-09T09:44:06.247Z,12.10
2022-09-09T09:46:33.629Z,12.28
2022-09-09T09:49:11.732Z,11.96
2022-09-09T09:51:39.868Z,11.84
2022-09-09T09:54:31.058Z,11.88
2022-09-09T09:57:17.246Z,11.79
2022-09-09T09:59:47.104Z,11.61
2022-09-09T10:02:26.821Z,11.54
2022-09-09T10:05:14.522Z,11.16
2022-09-09T10:07:47.053Z,11.50
2022-09-09T10:10:26.075Z,11.67
2022-09-09T10:13:23.612Z,11.68
2022-09-09T10:16:17.172Z,11.39
2022-09-09T10:18:59.163Z,11.41
2022-09-09T10:21:33.370Z,11.41
2022-09-09T10:24:37.912Z,11.37
2022-09-09T10:27:17.460Z,12.03
2022-09-09T10:30:13.502Z,11.85
2022-09-09T10:33:11.672Z,12.27
2022-09-09T10:35:46.782Z,12.25
2022-09-09T10:38:30.875Z,12.15
2022-09-09T10:40:57.680Z,11.99
2022-09-09T10:43:42.520Z,12.08
2022-09-09T10:46:21.504Z,11.70
2022-09-09T10:49:14.480Z,12.39
2022-09-09T10:52:04.464Z,12.21
2022-09-09T10:54:55.176Z,12.25
2022-09-09T10:57:33.920Z,12.03
2022-09-09T11:00:07.068Z,11.92
2022-09-09T11:02:35.463Z,11.54
2022-09-09T11:05:16.280Z,11.65
2022-09-09T11:07:57.711Z,11.57
2022-09-09T11:10:35.159Z,11.67
2022-09-09T11:13:06.768Z,11.80
2022-09-09T11:15:44.442Z,11.79
2022-09-09T11:18:22.502Z,11.97
2022-09-09T11:20:52.608Z,12.19
2022-09-09T11:23:41.952Z,12.41
2022-09-09T11:26:18.360Z,12.35
2022-09-09T11:29:05.802Z,12.32
2022-09-09T11:32:00.389Z,12.05
2022-09-09T11:34:45.738Z,12.06
2022-09-09T11:37:41.862Z,12.02
2022-09-09T11:40:45.105Z,12.03
2022-09-09T11:43:29.450Z,11.69
2022-09-09T11:46:01.972Z,11.85
2022-09-09T11:48:36.756Z,12.25
2022-09-09T11:51:16.465Z,12.27
2022-09-09T11:54:04.529Z,11.93
2022-09-09T11:56:33.018Z,11.82
2022-09-09T11:59:06.128Z,12.02
2022-09-09T12:01:43.585Z,11.87
2022-09-09T12:04:10.395Z,11.68
2022-09-09T12:07:04.708Z,12.03
2022-09-09T12:09:48.977Z,12.57
2022-09-09T12:12:16.046Z,12.39
2022-09-09T12:14:42.780Z,11.83
2022-09-09T12:17:15.791Z,11.87
2022-09-09T12:19:45.570Z,11.82
2022-09-09T12:22:53.834Z,12.11
2022-09-09T12:25:39.099Z,11.88
2022-09-09T12:28:16.391Z,11.80
2022-09-09T12:30:59.989Z,12.12
2022-09-09T12:33:36.150Z,12.04
2022-09-09T12:36:06.990Z,11.91
2022-09-09T12:38:44.792Z,12.19
2022-09-09T12:41:37.760Z,12.20
2022-09-09T12:44:06.776Z,12.32
2022-09-09T12:46:39.160Z,12.49
2022-09-09T12:49:06.179Z,12.19
2022-09-09T12:51:34.425Z,12.44
2022-09-09T12:54:01.916Z,12.56
2022-09-09T12:56:32.510Z,12.90
2022-09-09T12:59:00.696Z,12.62
2022-09-09T13:01:30.548Z,12.60
2022-09-09T13:03:57.972Z,12.81
2022-09-09T13:06:30.605Z,12.97
2022-09-09T13:09:00.530Z,13.05
2022-09-09T13:11:42.218Z,13.22
2022-09-09T13:14:25.130Z,13.58
2022-09-09T13:17:18.392Z,13.87
2022-09-09T13:19:46.396Z,13.83
2022-09-09T13:22:31.326Z,13.42
2022-09-09T13:25:23.503Z,13.35
2022-09-09T13:28:04.672Z,13.53
2022-09-09T13:30:38.915Z,13.50
2022-09-09T13:33:14.883Z,13.61
2022-09-09T13:35:56.106Z,13.15
2022-09-09T13:38:27.709Z,12.94
2022-09-09T13:41:04.596Z,12.43
2022-09-09T13:43:52.866Z,12.27
2022-09-09T13:46:38.218Z,11.87
2022-09-09T13:49:08.036Z,11.98
2022-09-09T13:51:38.271Z,12.01
2022-09-09T13:54:06.637Z,12.08
2022-09-09T13:56:35.106Z,12.13
2022-09-09T13:59:26.259Z,12.28
2022-09-09T14:01:57.767Z,12.26
2022-09-09T14:04:24.576Z,12.00
2022-09-09T14:06:51.936Z,12.02
2022-09-09T14:09:45.306Z,12.04
2022-09-09T14:12:13.019Z,11.86
2022-09-09T14:15:02.951Z,11.98
2022-09-09T14:17:29.979Z,12.09
2022-09-09T14:19:59.404Z,12.16
2022-09-09T14:22:26.692Z,12.32
2022-09-09T14:24:53.636Z,12.07
2022-09-09T14:27:20.575Z,12.39
2022-09-09T14:29:47.587Z,12.30
2022-09-09T14:32:14.594Z,12.43
2022-09-09T14:34:58.830Z,12.16
2022-09-09T14:37:28.483Z,12.40
2022-09-09T14:39:55.821Z,12.28
2022-09-09T14:42:22.965Z,12.44
2022-09-09T14:44:49.978Z,12.39
2022-09-09T14:47:17.124Z,12.15
2022-09-09T14:49:46.590Z,11.88
2022-09-09T14:52:14.321Z,11.65
2022-09-09T14:54:41.105Z,11.69
2022-09-09T14:57:08.103Z,11.55
2022-09-09T14:59:34.915Z,11.62
2022-09-09T15:02:01.880Z,11.62
2022-09-09T15:04:28.967Z,11.31
2022-09-09T15:06:55.850Z,11.29
2022-09-09T15:09:23.703Z,11.13
2022-09-09T15:12:27.770Z,11.00
2022-09-09T15:15:00.551Z,11.11
2022-09-09T15:17:37.603Z,11.19
2022-09-09T15:20:05.506Z,11.15
2022-09-09T15:23:22.771Z,11.23
2022-09-09T15:25:54.886Z,11.08
2022-09-09T15:28:22.927Z,11.15
2022-09-09T15:30:51.842Z,11.03
2022-09-09T15:33:24.082Z,11.17
2022-09-09T15:35:50.978Z,11.09
2022-09-09T15:38:17.861Z,11.08
2022-09-09T15:40:45.235Z,10.78
2022-09-09T15:43:39.424Z,10.97
2022-09-09T15:46:25.407Z,10.92
2022-09-09T15:48:54.438Z,10.67
2022-09-09T15:51:42.278Z,10.62
2022-09-09T15:54:34.489Z,10.73
2022-09-09T15:57:24.693Z,10.64
2022-09-09T16:00:06.474Z,10.63
2022-09-09T16:02:42.073Z,10.59
2022-09-09T16:05:13.004Z,10.65
2022-09-09T16:07:53.586Z,10.59
2022-09-09T16:10:20.672Z,10.50
2022-09-09T16:12:50.317Z,10.46
2022-09-09T16:15:21.293Z,10.53
2022-09-09T16:17:58.291Z,10.43
2022-09-09T16:20:25.785Z,10.35
2022-09-09T16:22:52.639Z,10.05
2022-09-09T16:25:19.533Z,10.37
2022-09-09T16:27:54.009Z,10.25
2022-09-09T16:30:22.032Z,10.36
2022-09-09T16:33:13.594Z,10.32
2022-09-09T16:35:40.602Z,10.14
2022-09-09T16:38:07.968Z,10.27
2022-09-09T16:40:39.203Z,10.37
2022-09-09T16:43:06.876Z,10.26
2022-09-09T16:45:54.455Z,10.45
2022-09-09T16:48:21.555Z,10.31
2022-09-09T16:51:12.989Z,10.34
2022-09-09T16:53:40.014Z,10.33
2022-09-09T16:56:12.041Z,10.40
2022-09-09T16:58:39.132Z,10.39
2022-09-09T17:01:09.051Z,10.37
2022-09-09T17:03:35.933Z,10.44
2022-09-09T17:06:02.685Z,10.29
2022-09-09T17:08:30.815Z,10.40
2022-09-09T17:11:33.165Z,10.43
2022-09-09T17:14:00.222Z,10.05
2022-09-09T17:16:30.770Z,10.10
2022-09-09T17:18:58.796Z,9.94
2022-09-09T17:21:27.569Z,9.83
2022-09-09T17:23:55.870Z,9.84
2022-09-09T17:26:25.433Z,9.76
2022-09-09T17:28:56.117Z,9.66
2022-09-09T17:31:33.978Z,9.72
2022-09-09T17:34:01.480Z,9.67
2022-09-09T17:36:31.730Z,9.57
2022-09-09T17:38:59.847Z,9.53
2022-09-09T17:41:33.108Z,9.47
2022-09-09T17:44:01.153Z,9.38
2022-09-09T17:46:40.302Z,9.43
2022-09-09T17:49:16.499Z,9.38
2022-09-09T17:51:44.915Z,9.40
2022-09-09T17:54:15.245Z,9.41
2022-09-09T17:56:43.094Z,9.38
2022-09-09T17:59:18.480Z,9.44
2022-09-09T18:01:48.225Z,9.34
2022-09-09T18:04:21.319Z,9.37
2022-09-09T18:06:52.942Z,9.28
2022-09-09T18:09:28.249Z,9.20
2022-09-09T18:11:58.184Z,9.21
2022-09-09T18:14:30.599Z,9.06
2022-09-09T18:17:02.298Z,8.97
2022-09-09T18:19:32.977Z,8.89
2022-09-09T18:22:02.593Z,8.86
2022-09-09T18:24:30.873Z,8.82
2022-09-09T18:26:57.698Z,8.87
2022-09-09T18:29:27.415Z,8.83
2022-09-09T18:31:55.111Z,8.80
2022-09-09T18:34:23.350Z,8.83
2022-09-09T18:36:52.516Z,8.77
2022-09-09T18:39:21.033Z,8.82
2022-09-09T18:41:50.514Z,8.69
2022-09-09T18:44:21.372Z,8.48
2022-09-09T18:46:49.192Z,8.63
2022-09-09T18:49:19.148Z,8.64
2022-09-09T18:51:46.675Z,8.70
2022-09-09T18:54:17.703Z,8.56
2022-09-09T18:56:44.915Z,8.62
2022-09-09T18:59:15.243Z,8.44
2022-09-09T19:01:42.786Z,8.52
2022-09-09T19:04:10.067Z,8.43
2022-09-09T19:06:43.274Z,8.45
2022-09-09T19:09:11.974Z,8.51
2022-09-09T19:11:39.229Z,8.57
2022-09-09T19:14:08.583Z,8.39
2022-09-09T19:16:36.228Z,8.48
2022-09-09T19:19:08.799Z,8.42
2022-09-09T19:21:38.175Z,8.53
2022-09-09T19:24:17.448Z,8.20
2022-09-09T19:26:47.644Z,8.42
2022-09-09T19:29:17.229Z,8.31
2022-09-09T19:31:55.361Z,8.27
2022-09-09T19:34:40.919Z,8.32
2022-09-09T19:37:07.816Z,8.42
2022-09-09T19:39:34.767Z,8.30
2022-09-09T19:42:02.091Z,8.33
2022-09-09T19:44:31.585Z,8.12
2022-09-09T19:46:58.400Z,8.24
2022-09-09T19:49:25.208Z,8.19
2022-09-09T19:51:52.176Z,8.29
2022-09-09T19:54:18.979Z,8.19
2022-09-09T19:56:45.820Z,8.32
2022-09-09T19:59:15.943Z,8.30
2022-09-09T20:01:44.944Z,8.04
2022-09-09T20:04:12.912Z,8.00
2022-09-09T20:06:42.150Z,7.83
2022-09-09T20:09:12.986Z,7.79
2022-09-09T20:11:40.431Z,7.66
2022-09-09T20:14:07.814Z,7.73
2022-09-09T20:16:35.119Z,7.66
2022-09-09T20:19:07.330Z,7.62
2022-09-09T20:21:46.710Z,7.70
2022-09-09T20:24:16.729Z,7.69
2022-09-09T20:26:43.584Z,7.73
2022-09-09T20:29:16.488Z,7.78
2022-09-09T20:31:44.367Z,7.62
2022-09-09T20:34:14.151Z,7.70
2022-09-09T20:36:42.134Z,7.82
2022-09-09T20:39:15.223Z,7.86
2022-09-09T20:41:45.174Z,7.76
2022-09-09T20:44:18.105Z,7.82
2022-09-09T20:46:47.553Z,7.83
2022-09-09T20:49:15.369Z,7.99
2022-09-09T20:51:42.761Z,7.92
2022-09-09T20:54:16.086Z,7.81
2022-09-09T20:56:45.222Z,7.83
2022-09-09T20:59:23.055Z,7.89
2022-09-09T21:01:50.750Z,7.71
2022-09-09T21:04:19.593Z,7.67
2022-09-09T21:06:47.449Z,7.66
2022-09-09T21:09:14.603Z,7.65
2022-09-09T21:11:41.730Z,7.63
2022-09-09T21:14:08.659Z,7.55
2022-09-09T21:16:35.569Z,7.41
2022-09-09T21:19:02.352Z,7.25
2022-09-09T21:21:39.571Z,7.19
2022-09-09T21:24:06.560Z,7.25
2022-09-09T21:26:33.488Z,7.28
2022-09-09T21:29:00.477Z,7.39
2022-09-09T21:31:28.481Z,7.29
2022-09-09T21:33:58.715Z,7.30
2022-09-09T21:36:26.179Z,7.34
2022-09-09T21:38:53.019Z,7.20
2022-09-09T21:41:19.881Z,7.26
2022-09-09T21:43:52.694Z,7.43
2022-09-09T21:46:20.915Z,7.43
2022-09-09T21:48:47.701Z,7.34
2022-09-09T21:51:16.962Z,7.29
2022-09-09T21:53:44.498Z,7.26
2022-09-09T21:56:14.283Z,7.10
2022-09-09T21:58:41.614Z,7.15
2022-09-09T22:01:16.834Z,7.22
2022-09-09T22:03:44.925Z,7.27
2022-09-09T22:06:15.170Z,7.20
2022-09-09T22:08:42.640Z,7.16
2022-09-09T22:11:26.356Z,7.08
2022-09-09T22:13:53.301Z,7.12
2022-09-09T22:16:22.086Z,7.03
2022-09-09T22:18:58.927Z,7.11
2022-09-09T22:21:44.282Z,7.14
2022-09-09T22:24:12.084Z,7.21
2022-09-09T22:26:39.246Z,7.20
2022-09-09T22:29:07.047Z,7.22
2022-09-09T22:31:34.893Z,7.11
2022-09-09T22:34:02.536Z,7.03
2022-09-09T22:36:29.528Z,6.98
2022-09-09T22:38:56.406Z,7.03
2022-09-09T22:41:23.673Z,7.03
2022-09-09T22:43:50.910Z,6.97
2022-09-09T22:46:17.852Z,6.92
2022-09-09T22:48:44.830Z,6.72
2022-09-09T22:51:14.207Z,6.71
2022-09-09T22:53:42.544Z,6.63
2022-09-09T22:56:17.252Z,6.48
2022-09-09T22:58:45.137Z,6.51
2022-09-09T23:01:17.673Z,6.57
2022-09-09T23:03:45.338Z,6.57
2022-09-09T23:06:13.800Z,6.50
2022-09-09T23:08:40.632Z,6.48
2022-09-09T23:11:10.042Z,6.45
2022-09-09T23:13:41.909Z,6.32
2022-09-09T23:16:09.673Z,6.38
2022-09-09T23:18:36.706Z,6.34
2022-09-09T23:21:03.610Z,6.23
2022-09-09T23:23:30.466Z,6.27
2022-09-09T23:26:00.786Z,6.24
2022-09-09T23:28:29.407Z,6.13
2022-09-09T23:30:56.244Z,6.11
2022-09-09T23:33:23.337Z,6.12
2022-09-09T23:36:01.111Z,6.20
2022-09-09T23:38:31.073Z,6.16
2022-09-09T23:41:03.802Z,6.24
2022-09-09T23:43:30.876Z,6.11
2022-09-09T23:45:57.816Z,6.17
2022-09-09T23:48:24.742Z,6.12
2022-09-09T23:50:51.592Z,6.14
2022-09-09T23:53:18.627Z,6.17
2022-09-09T23:55:45.379Z,6.13
2022-09-09T23:58:12.479Z,6.10
